sensor_id;sensor_type;location;lat;lon;timestamp;pressure;altitude;pressure_sealevel;temperature;humidity
13705;BME280;6924;52.122;9.952;2024-01-16T00:00:44;99303.81;;;-0.57;100.00
13705;BME280;6924;52.122;9.952;2024-01-16T00:03:10;99297.69;;;-0.59;100.00
13705;BME280;6924;52.122;9.952;2024-01-16T00:05:37;99311.25;;;-0.63;100.00
13705;BME280;6924;52.122;9.952;2024-01-16T00:08:03;99314.06;;;-0.57;100.00
13705;BME280;6924;52.122;9.952;2024-01-16T00:10:30;99314.34;;;-0.54;100.00
13705;BME280;6924;52.122;9.952;2024-01-16T00:12:56;99315.19;;;-0.58;100.00
13705;BME280;6924;52.122;9.952;2024-01-16T00:15:23;99329.88;;;-0.58;100.00
13705;BME280;6924;52.122;9.952;2024-01-16T00:17:50;99330.97;;;-0.64;100.00
13705;BME280;6924;52.122;9.952;2024-01-16T00:20:17;99340.72;;;-0.61;100.00
13705;BME280;6924;52.122;9.952;2024-01-16T00:22:44;99341.81;;;-0.63;100.00
13705;BME280;6924;52.122;9.952;2024-01-16T00:25:10;99351.59;;;-0.55;100.00
13705;BME280;6924;52.122;9.952;2024-01-16T00:27:37;99356.03;;;-0.54;100.00
13705;BME280;6924;52.122;9.952;2024-01-16T00:30:04;99356.03;;;-0.49;100.00
13705;BME280;6924;52.122;9.952;2024-01-16T00:32:31;99351.28;;;-0.53;100.00
13705;BME280;6924;52.122;9.952;2024-01-16T00:34:59;99362.16;;;-0.47;100.00
13705;BME280;6924;52.122;9.952;2024-01-16T00:37:26;99365.78;;;-0.46;100.00
13705;BME280;6924;52.122;9.952;2024-01-16T00:39:52;99372.44;;;-0.47;100.00
13705;BME280;6924;52.122;9.952;2024-01-16T00:42:18;99367.19;;;-0.44;100.00
13705;BME280;6924;52.122;9.952;2024-01-16T00:44:45;99371.59;;;-0.48;100.00
13705;BME280;6924;52.122;9.952;2024-01-16T00:47:11;99375.53;;;-0.38;100.00
13705;BME280;6924;52.122;9.952;2024-01-16T00:49:38;99382.47;;;-0.41;100.00
13705;BME280;6924;52.122;9.952;2024-01-16T00:52:05;99374.69;;;-0.44;100.00
13705;BME280;6924;52.122;9.952;2024-01-16T00:54:32;99385.25;;;-0.41;100.00
13705;BME280;6924;52.122;9.952;2024-01-16T00:56:59;99381.34;;;-0.40;100.00
13705;BME280;6924;52.122;9.952;2024-01-16T00:59:25;99380.53;;;-0.40;100.00
13705;BME280;6924;52.122;9.952;2024-01-16T01:01:52;99387.47;;;-0.38;100.00
13705;BME280;6924;52.122;9.952;2024-01-16T01:04:18;99389.66;;;-0.45;100.00
13705;BME280;6924;52.122;9.952;2024-01-16T01:06:45;99391.06;;;-0.48;100.00
13705;BME280;6924;52.122;9.952;2024-01-16T01:09:12;99392.19;;;-0.44;100.00
13705;BME280;6924;52.122;9.952;2024-01-16T01:11:39;99398.03;;;-0.40;100.00
13705;BME280;6924;52.122;9.952;2024-01-16T01:14:05;99386.91;;;-0.40;100.00
13705;BME280;6924;52.122;9.952;2024-01-16T01:16:32;99402.75;;;-0.40;100.00
13705;BME280;6924;52.122;9.952;2024-01-16T01:18:58;99404.44;;;-0.39;100.00
13705;BME280;6924;52.122;9.952;2024-01-16T01:21:24;99417.44;;;-0.45;100.00
13705;BME280;6924;52.122;9.952;2024-01-16T01:23:51;99416.38;;;-0.39;100.00
13705;BME280;6924;52.122;9.952;2024-01-16T01:26:19;99413.59;;;-0.44;100.00
13705;BME280;6924;52.122;9.952;2024-01-16T01:28:46;99421.03;;;-0.50;100.00
13705;BME280;6924;52.122;9.952;2024-01-16T01:31:12;99419.91;;;-0.54;100.00
13705;BME280;6924;52.122;9.952;2024-01-16T01:33:39;99430.22;;;-0.49;100.00
13705;BME280;6924;52.122;9.952;2024-01-16T01:36:05;99433.56;;;-0.42;100.00
13705;BME280;6924;52.122;9.952;2024-01-16T01:38:32;99430.47;;;-0.51;100.00
13705;BME280;6924;52.122;9.952;2024-01-16T01:40:58;99429.69;;;-0.41;100.00
13705;BME280;6924;52.122;9.952;2024-01-16T01:43:26;99432.97;;;-0.49;100.00
13705;BME280;6924;52.122;9.952;2024-01-16T01:46:09;99437.94;;;-0.56;100.00
13705;BME280;6924;52.122;9.952;2024-01-16T01:48:37;99447.69;;;-0.49;100.00
13705;BME280;6924;52.122;9.952;2024-01-16T01:51:04;99446.03;;;-0.50;100.00
13705;BME280;6924;52.122;9.952;2024-01-16T01:53:31;99450.47;;;-0.54;100.00
13705;BME280;6924;52.122;9.952;2024-01-16T01:55:58;99451.59;;;-0.55;100.00
13705;BME280;6924;52.122;9.952;2024-01-16T01:58:27;99449.03;;;-0.61;100.00
13705;BME280;6924;52.122;9.952;2024-01-16T02:00:53;99448.81;;;-0.55;100.00
13705;BME280;6924;52.122;9.952;2024-01-16T02:03:21;99453.47;;;-0.60;100.00
13705;BME280;6924;52.122;9.952;2024-01-16T02:05:49;99457.66;;;-0.58;100.00
13705;BME280;6924;52.122;9.952;2024-01-16T02:08:17;99461.56;;;-0.59;100.00
13705;BME280;6924;52.122;9.952;2024-01-16T02:10:45;99465.72;;;-0.61;100.00
13705;BME280;6924;52.122;9.952;2024-01-16T02:13:13;99469.84;;;-0.64;100.00
13705;BME280;6924;52.122;9.952;2024-01-16T02:15:41;99487.63;;;-0.60;100.00
13705;BME280;6924;52.122;9.952;2024-01-16T02:18:07;99470.16;;;-0.60;100.00
13705;BME280;6924;52.122;9.952;2024-01-16T02:20:34;99472.13;;;-0.56;100.00
13705;BME280;6924;52.122;9.952;2024-01-16T02:23:03;99474.66;;;-0.49;100.00
13705;BME280;6924;52.122;9.952;2024-01-16T02:25:31;99469.91;;;-0.54;100.00
13705;BME280;6924;52.122;9.952;2024-01-16T02:27:59;99479.84;;;-0.63;100.00
13705;BME280;6924;52.122;9.952;2024-01-16T02:30:26;99479.84;;;-0.63;100.00
13705;BME280;6924;52.122;9.952;2024-01-16T02:32:52;99480.44;;;-0.61;100.00
13705;BME280;6924;52.122;9.952;2024-01-16T02:35:18;99482.97;;;-0.54;100.00
13705;BME280;6924;52.122;9.952;2024-01-16T02:37:45;99476.06;;;-0.47;100.00
13705;BME280;6924;52.122;9.952;2024-01-16T02:40:11;99487.13;;;-0.57;100.00
13705;BME280;6924;52.122;9.952;2024-01-16T02:42:39;99471.28;;;-0.56;100.00
13705;BME280;6924;52.122;9.952;2024-01-16T02:45:06;99475.53;;;-0.44;100.00
13705;BME280;6924;52.122;9.952;2024-01-16T02:47:33;99489.31;;;-0.59;100.00
13705;BME280;6924;52.122;9.952;2024-01-16T02:50:00;99495.41;;;-0.62;100.00
13705;BME280;6924;52.122;9.952;2024-01-16T02:52:27;99500.19;;;-0.52;100.00
13705;BME280;6924;52.122;9.952;2024-01-16T02:54:53;99507.38;;;-0.61;100.00
13705;BME280;6924;52.122;9.952;2024-01-16T02:57:19;99506.91;;;-0.48;100.00
13705;BME280;6924;52.122;9.952;2024-01-16T02:59:47;99514.91;;;-0.57;100.00
13705;BME280;6924;52.122;9.952;2024-01-16T03:02:13;99523.47;;;-0.64;100.00
13705;BME280;6924;52.122;9.952;2024-01-16T03:04:41;99525.91;;;-0.67;100.00
13705;BME280;6924;52.122;9.952;2024-01-16T03:07:07;99531.16;;;-0.71;100.00
13705;BME280;6924;52.122;9.952;2024-01-16T03:09:33;99539.50;;;-0.71;100.00
13705;BME280;6924;52.122;9.952;2024-01-16T03:12:00;99534.47;;;-0.74;100.00
13705;BME280;6924;52.122;9.952;2024-01-16T03:14:26;99542.59;;;-0.67;100.00
13705;BME280;6924;52.122;9.952;2024-01-16T03:16:54;99540.69;;;-0.61;100.00
13705;BME280;6924;52.122;9.952;2024-01-16T03:19:21;99536.56;;;-0.54;100.00
13705;BME280;6924;52.122;9.952;2024-01-16T03:21:47;99543.00;;;-0.48;100.00
13705;BME280;6924;52.122;9.952;2024-01-16T03:24:14;99536.00;;;-0.56;100.00
13705;BME280;6924;52.122;9.952;2024-01-16T03:26:40;99548.16;;;-0.62;100.00
13705;BME280;6924;52.122;9.952;2024-01-16T03:29:07;99542.63;;;-0.62;100.00
13705;BME280;6924;52.122;9.952;2024-01-16T03:31:34;99550.91;;;-0.67;100.00
13705;BME280;6924;52.122;9.952;2024-01-16T03:34:01;99553.44;;;-0.66;100.00
13705;BME280;6924;52.122;9.952;2024-01-16T03:36:28;99546.72;;;-0.70;100.00
13705;BME280;6924;52.122;9.952;2024-01-16T03:38:54;99550.66;;;-0.66;100.00
13705;BME280;6924;52.122;9.952;2024-01-16T03:41:21;99551.81;;;-0.61;100.00
13705;BME280;6924;52.122;9.952;2024-01-16T03:43:47;99555.66;;;-0.63;100.00
13705;BME280;6924;52.122;9.952;2024-01-16T03:46:13;99562.59;;;-0.65;100.00
13705;BME280;6924;52.122;9.952;2024-01-16T03:48:40;99565.84;;;-0.73;100.00
13705;BME280;6924;52.122;9.952;2024-01-16T03:51:08;99557.50;;;-0.78;100.00
13705;BME280;6924;52.122;9.952;2024-01-16T03:53:35;99562.25;;;-0.74;100.00
13705;BME280;6924;52.122;9.952;2024-01-16T03:56:01;99563.88;;;-0.78;100.00
13705;BME280;6924;52.122;9.952;2024-01-16T03:58:27;99568.00;;;-0.86;100.00
13705;BME280;6924;52.122;9.952;2024-01-16T04:00:54;99573.22;;;-0.89;100.00
13705;BME280;6924;52.122;9.952;2024-01-16T04:03:21;99571.16;;;-0.72;100.00
13705;BME280;6924;52.122;9.952;2024-01-16T04:05:48;99575.31;;;-0.74;100.00
13705;BME280;6924;52.122;9.952;2024-01-16T04:08:15;99573.84;;;-0.82;100.00
13705;BME280;6924;52.122;9.952;2024-01-16T04:10:42;99574.06;;;-0.89;100.00
13705;BME280;6924;52.122;9.952;2024-01-16T04:13:08;99573.03;;;-0.77;100.00
13705;BME280;6924;52.122;9.952;2024-01-16T04:15:37;99575.91;;;-0.67;100.00
13705;BME280;6924;52.122;9.952;2024-01-16T04:18:04;99578.69;;;-0.67;100.00
13705;BME280;6924;52.122;9.952;2024-01-16T04:20:30;99575.91;;;-0.67;100.00
13705;BME280;6924;52.122;9.952;2024-01-16T04:22:57;99573.69;;;-0.70;100.00
13705;BME280;6924;52.122;9.952;2024-01-16T04:25:25;99581.72;;;-0.69;100.00
13705;BME280;6924;52.122;9.952;2024-01-16T04:27:51;99573.47;;;-0.58;100.00
13705;BME280;6924;52.122;9.952;2024-01-16T04:30:17;99568.41;;;-0.67;100.00
13705;BME280;6924;52.122;9.952;2024-01-16T04:32:45;99569.53;;;-0.68;100.00
13705;BME280;6924;52.122;9.952;2024-01-16T04:35:11;99574.25;;;-0.68;100.00
13705;BME280;6924;52.122;9.952;2024-01-16T04:37:38;99580.75;;;-0.85;100.00
13705;BME280;6924;52.122;9.952;2024-01-16T04:40:05;99582.34;;;-0.94;100.00
13705;BME280;6924;52.122;9.952;2024-01-16T04:42:32;99582.59;;;-0.95;100.00
13705;BME280;6924;52.122;9.952;2024-01-16T04:44:59;99576.97;;;-1.06;100.00
13705;BME280;6924;52.122;9.952;2024-01-16T04:47:25;99579.22;;;-1.02;100.00
13705;BME280;6924;52.122;9.952;2024-01-16T04:49:52;99578.31;;;-1.08;100.00
13705;BME280;6924;52.122;9.952;2024-01-16T04:52:18;99581.88;;;-1.13;100.00
13705;BME280;6924;52.122;9.952;2024-01-16T04:54:45;99585.50;;;-1.12;100.00
13705;BME280;6924;52.122;9.952;2024-01-16T04:57:11;99588.16;;;-0.95;100.00
13705;BME280;6924;52.122;9.952;2024-01-16T04:59:39;99587.84;;;-0.99;100.00
13705;BME280;6924;52.122;9.952;2024-01-16T05:02:06;99593.22;;;-0.87;100.00
13705;BME280;6924;52.122;9.952;2024-01-16T05:04:36;99590.41;;;-0.92;100.00
13705;BME280;6924;52.122;9.952;2024-01-16T05:07:03;99591.25;;;-0.92;100.00
13705;BME280;6924;52.122;9.952;2024-01-16T05:09:29;99592.63;;;-0.94;100.00
13705;BME280;6924;52.122;9.952;2024-01-16T05:11:55;99597.34;;;-0.95;100.00
13705;BME280;6924;52.122;9.952;2024-01-16T05:14:22;99593.13;;;-0.97;100.00
13705;BME280;6924;52.122;9.952;2024-01-16T05:16:51;99599.00;;;-0.94;100.00
13705;BME280;6924;52.122;9.952;2024-01-16T05:19:18;99600.75;;;-0.82;100.00
13705;BME280;6924;52.122;9.952;2024-01-16T05:21:44;99607.72;;;-0.80;100.00
13705;BME280;6924;52.122;9.952;2024-01-16T05:24:11;99607.38;;;-0.89;100.00
13705;BME280;6924;52.122;9.952;2024-01-16T05:26:37;99604.59;;;-0.89;100.00
13705;BME280;6924;52.122;9.952;2024-01-16T05:29:03;99606.06;;;-0.81;100.00
13705;BME280;6924;52.122;9.952;2024-01-16T05:31:30;99601.59;;;-0.82;100.00
13705;BME280;6924;52.122;9.952;2024-01-16T05:33:57;99611.63;;;-0.81;100.00
13705;BME280;6924;52.122;9.952;2024-01-16T05:36:24;99606.09;;;-0.76;100.00
13705;BME280;6924;52.122;9.952;2024-01-16T05:38:50;99601.03;;;-0.84;100.00
13705;BME280;6924;52.122;9.952;2024-01-16T05:41:18;99598.03;;;-0.77;100.00
13705;BME280;6924;52.122;9.952;2024-01-16T05:43:44;99599.09;;;-0.84;100.00
13705;BME280;6924;52.122;9.952;2024-01-16T05:46:12;99602.75;;;-0.78;100.00
13705;BME280;6924;52.122;9.952;2024-01-16T05:48:39;99595.31;;;-0.72;100.00
13705;BME280;6924;52.122;9.952;2024-01-16T05:51:06;99603.09;;;-0.69;100.00
13705;BME280;6924;52.122;9.952;2024-01-16T05:53:33;99605.78;;;-0.79;100.00
13705;BME280;6924;52.122;9.952;2024-01-16T05:55:59;99598.59;;;-0.75;100.00
13705;BME280;6924;52.122;9.952;2024-01-16T05:58:25;99600.72;;;-0.88;100.00
13705;BME280;6924;52.122;9.952;2024-01-16T06:00:52;99604.00;;;-0.91;100.00
13705;BME280;6924;52.122;9.952;2024-01-16T06:03:18;99595.69;;;-0.91;100.00
13705;BME280;6924;52.122;9.952;2024-01-16T06:05:44;99595.09;;;-0.93;100.00
13705;BME280;6924;52.122;9.952;2024-01-16T06:08:12;99598.47;;;-0.91;100.00
13705;BME280;6924;52.122;9.952;2024-01-16T06:10:38;99593.91;;;-1.02;100.00
13705;BME280;6924;52.122;9.952;2024-01-16T06:13:05;99598.06;;;-1.05;100.00
13705;BME280;6924;52.122;9.952;2024-01-16T06:15:31;99593.72;;;-1.22;100.00
13705;BME280;6924;52.122;9.952;2024-01-16T06:17:58;99596.03;;;-1.14;100.00
13705;BME280;6924;52.122;9.952;2024-01-16T06:20:24;99594.34;;;-1.15;100.00
13705;BME280;6924;52.122;9.952;2024-01-16T06:22:51;99600.53;;;-1.30;100.00
13705;BME280;6924;52.122;9.952;2024-01-16T06:25:18;99599.91;;;-1.37;100.00
13705;BME280;6924;52.122;9.952;2024-01-16T06:27:45;99602.66;;;-1.15;100.00
13705;BME280;6924;52.122;9.952;2024-01-16T06:30:11;99605.19;;;-1.14;100.00
13705;BME280;6924;52.122;9.952;2024-01-16T06:32:38;99605.75;;;-1.12;100.00
13705;BME280;6924;52.122;9.952;2024-01-16T06:35:05;99604.56;;;-1.21;100.00
13705;BME280;6924;52.122;9.952;2024-01-16T06:37:32;99611.78;;;-1.20;100.00
13705;BME280;6924;52.122;9.952;2024-01-16T06:39:59;99617.56;;;-1.21;100.00
13705;BME280;6924;52.122;9.952;2024-01-16T06:42:27;99622.16;;;-1.10;100.00
13705;BME280;6924;52.122;9.952;2024-01-16T06:44:53;99616.06;;;-1.07;100.00
13705;BME280;6924;52.122;9.952;2024-01-16T06:47:19;99611.72;;;-0.98;100.00
13705;BME280;6924;52.122;9.952;2024-01-16T06:49:46;99622.78;;;-1.03;100.00
13705;BME280;6924;52.122;9.952;2024-01-16T06:52:12;99622.88;;;-0.93;100.00
13705;BME280;6924;52.122;9.952;2024-01-16T06:54:39;99621.56;;;-0.85;100.00
13705;BME280;6924;52.122;9.952;2024-01-16T06:57:05;99617.38;;;-0.88;100.00
13705;BME280;6924;52.122;9.952;2024-01-16T06:59:33;99631.09;;;-0.76;100.00
13705;BME280;6924;52.122;9.952;2024-01-16T07:01:59;99627.06;;;-0.63;100.00
13705;BME280;6924;52.122;9.952;2024-01-16T07:04:25;99623.72;;;-0.60;100.00
13705;BME280;6924;52.122;9.952;2024-01-16T07:06:52;99627.16;;;-0.53;100.00
13705;BME280;6924;52.122;9.952;2024-01-16T07:09:18;99633.75;;;-0.59;100.00
13705;BME280;6924;52.122;9.952;2024-01-16T07:11:46;99625.13;;;-0.57;100.00
13705;BME280;6924;52.122;9.952;2024-01-16T07:14:12;99634.16;;;-0.45;100.00
13705;BME280;6924;52.122;9.952;2024-01-16T07:16:40;99633.00;;;-0.49;100.00
13705;BME280;6924;52.122;9.952;2024-01-16T07:19:06;99635.34;;;-0.68;100.00
13705;BME280;6924;52.122;9.952;2024-01-16T07:21:33;99635.28;;;-0.73;100.00
13705;BME280;6924;52.122;9.952;2024-01-16T07:24:00;99633.66;;;-0.69;100.00
13705;BME280;6924;52.122;9.952;2024-01-16T07:26:26;99639.16;;;-0.74;100.00
13705;BME280;6924;52.122;9.952;2024-01-16T07:28:53;99634.91;;;-0.82;100.00
13705;BME280;6924;52.122;9.952;2024-01-16T07:31:19;99636.97;;;-0.72;100.00
13705;BME280;6924;52.122;9.952;2024-01-16T07:33:47;99636.31;;;-0.79;100.00
13705;BME280;6924;52.122;9.952;2024-01-16T07:36:14;99635.25;;;-0.78;100.00
13705;BME280;6924;52.122;9.952;2024-01-16T07:38:40;99633.50;;;-0.85;100.00
13705;BME280;6924;52.122;9.952;2024-01-16T07:41:06;99629.16;;;-0.75;100.00
13705;BME280;6924;52.122;9.952;2024-01-16T07:43:33;99636.69;;;-0.71;100.00
13705;BME280;6924;52.122;9.952;2024-01-16T07:46:00;99643.56;;;-0.78;100.00
13705;BME280;6924;52.122;9.952;2024-01-16T07:48:26;99636.47;;;-0.64;100.00
13705;BME280;6924;52.122;9.952;2024-01-16T07:50:54;99641.19;;;-0.65;100.00
13705;BME280;6924;52.122;9.952;2024-01-16T07:53:20;99636.34;;;-0.47;100.00
13705;BME280;6924;52.122;9.952;2024-01-16T07:55:47;99646.97;;;-0.44;100.00
13705;BME280;6924;52.122;9.952;2024-01-16T07:58:14;99636.66;;;-0.44;100.00
13705;BME280;6924;52.122;9.952;2024-01-16T08:00:40;99645.25;;;-0.45;100.00
13705;BME280;6924;52.122;9.952;2024-01-16T08:03:08;99654.97;;;-0.48;100.00
13705;BME280;6924;52.122;9.952;2024-01-16T08:05:36;99643.84;;;-0.48;100.00
13705;BME280;6924;52.122;9.952;2024-01-16T08:08:04;99646.09;;;-0.45;100.00
13705;BME280;6924;52.122;9.952;2024-01-16T08:10:30;99668.31;;;-0.45;100.00
13705;BME280;6924;52.122;9.952;2024-01-16T08:12:57;99656.28;;;-0.55;100.00
13705;BME280;6924;52.122;9.952;2024-01-16T08:15:23;99664.34;;;-0.54;100.00
13705;BME280;6924;52.122;9.952;2024-01-16T08:17:49;99666.81;;;-0.57;100.00
13705;BME280;6924;52.122;9.952;2024-01-16T08:20:16;99662.03;;;-0.62;100.00
13705;BME280;6924;52.122;9.952;2024-01-16T08:22:42;99659.91;;;-0.55;100.00
13705;BME280;6924;52.122;9.952;2024-01-16T08:25:10;99653.06;;;-0.42;100.00
13705;BME280;6924;52.122;9.952;2024-01-16T08:27:36;99646.72;;;-0.37;100.00
13705;BME280;6924;52.122;9.952;2024-01-16T08:30:04;99643.50;;;-0.24;100.00
13705;BME280;6924;52.122;9.952;2024-01-16T08:32:30;99651.63;;;-0.17;100.00
13705;BME280;6924;52.122;9.952;2024-01-16T08:34:57;99648.75;;;-0.28;100.00
13705;BME280;6924;52.122;9.952;2024-01-16T08:37:23;99653.75;;;-0.25;100.00
13705;BME280;6924;52.122;9.952;2024-01-16T08:39:50;99653.94;;;-0.36;100.00
13705;BME280;6924;52.122;9.952;2024-01-16T08:42:18;99656.41;;;-0.40;100.00
13705;BME280;6924;52.122;9.952;2024-01-16T08:44:44;99649.53;;;-0.32;100.00
13705;BME280;6924;52.122;9.952;2024-01-16T08:47:11;99655.00;;;-0.43;100.00
13705;BME280;6924;52.122;9.952;2024-01-16T08:49:37;99657.84;;;-0.37;100.00
13705;BME280;6924;52.122;9.952;2024-01-16T08:52:05;99662.09;;;-0.25;100.00
13705;BME280;6924;52.122;9.952;2024-01-16T08:54:31;99657.34;;;-0.29;100.00
13705;BME280;6924;52.122;9.952;2024-01-16T08:56:58;99658.38;;;-0.35;100.00
13705;BME280;6924;52.122;9.952;2024-01-16T08:59:25;99664.81;;;-0.35;100.00
13705;BME280;6924;52.122;9.952;2024-01-16T09:01:53;99650.41;;;-0.27;100.00
13705;BME280;6924;52.122;9.952;2024-01-16T09:04:19;99665.19;;;-0.21;100.00
13705;BME280;6924;52.122;9.952;2024-01-16T09:06:46;99653.53;;;-0.18;100.00
13705;BME280;6924;52.122;9.952;2024-01-16T09:09:12;99650.25;;;-0.15;100.00
13705;BME280;6924;52.122;9.952;2024-01-16T09:11:41;99657.44;;;-0.19;100.00
13705;BME280;6924;52.122;9.952;2024-01-16T09:14:07;99657.06;;;-0.28;100.00
13705;BME280;6924;52.122;9.952;2024-01-16T09:16:35;99660.94;;;-0.29;100.00
13705;BME280;6924;52.122;9.952;2024-01-16T09:19:01;99665.44;;;-0.23;100.00
13705;BME280;6924;52.122;9.952;2024-01-16T09:21:28;99663.44;;;-0.32;100.00
13705;BME280;6924;52.122;9.952;2024-01-16T09:23:54;99661.00;;;-0.24;100.00
13705;BME280;6924;52.122;9.952;2024-01-16T09:26:21;99656.81;;;-0.26;100.00
13705;BME280;6924;52.122;9.952;2024-01-16T09:28:47;99657.31;;;-0.34;100.00
13705;BME280;6924;52.122;9.952;2024-01-16T09:31:15;99652.41;;;-0.22;100.00
13705;BME280;6924;52.122;9.952;2024-01-16T09:33:43;99664.16;;;-0.10;100.00
13705;BME280;6924;52.122;9.952;2024-01-16T09:36:09;99663.31;;;-0.15;100.00
13705;BME280;6924;52.122;9.952;2024-01-16T09:38:36;99666.03;;;-0.21;100.00
13705;BME280;6924;52.122;9.952;2024-01-16T09:41:02;99666.97;;;-0.05;100.00
13705;BME280;6924;52.122;9.952;2024-01-16T09:43:29;99670.88;;;-0.06;100.00
13705;BME280;6924;52.122;9.952;2024-01-16T09:46:00;99666.47;;;-0.02;100.00
13705;BME280;6924;52.122;9.952;2024-01-16T09:48:27;99675.97;;;0.08;100.00
13705;BME280;6924;52.122;9.952;2024-01-16T09:50:56;99666.81;;;0.12;100.00
13705;BME280;6924;52.122;9.952;2024-01-16T09:53:22;99665.44;;;0.15;100.00
13705;BME280;6924;52.122;9.952;2024-01-16T09:55:49;99672.97;;;0.19;100.00
13705;BME280;6924;52.122;9.952;2024-01-16T09:58:18;99666.91;;;0.23;100.00
13705;BME280;6924;52.122;9.952;2024-01-16T10:00:46;99675.34;;;0.38;100.00
13705;BME280;6924;52.122;9.952;2024-01-16T10:03:14;99675.38;;;0.48;100.00
13705;BME280;6924;52.122;9.952;2024-01-16T10:05:41;99678.47;;;0.57;100.00
13705;BME280;6924;52.122;9.952;2024-01-16T10:08:09;99667.31;;;0.47;100.00
13705;BME280;6924;52.122;9.952;2024-01-16T10:10:36;99674.53;;;0.43;100.00
13705;BME280;6924;52.122;9.952;2024-01-16T10:13:03;99671.19;;;0.46;100.00
13705;BME280;6924;52.122;9.952;2024-01-16T10:15:29;99663.97;;;0.50;100.00
13705;BME280;6924;52.122;9.952;2024-01-16T10:17:57;99664.59;;;0.62;100.00
13705;BME280;6924;52.122;9.952;2024-01-16T10:20:34;99665.69;;;0.56;100.00
13705;BME280;6924;52.122;9.952;2024-01-16T10:23:01;99674.88;;;0.56;100.00
13705;BME280;6924;52.122;9.952;2024-01-16T10:25:30;99680.69;;;0.55;100.00
13705;BME280;6924;52.122;9.952;2024-01-16T10:28:03;99676.88;;;0.71;100.00
13705;BME280;6924;52.122;9.952;2024-01-16T10:30:31;99678.28;;;0.69;100.00
13705;BME280;6924;52.122;9.952;2024-01-16T10:33:12;99691.06;;;0.65;100.00
13705;BME280;6924;52.122;9.952;2024-01-16T10:35:39;99684.69;;;0.69;100.00
13705;BME280;6924;52.122;9.952;2024-01-16T10:38:05;99679.44;;;0.88;100.00
13705;BME280;6924;52.122;9.952;2024-01-16T10:40:33;99683.97;;;1.05;100.00
13705;BME280;6924;52.122;9.952;2024-01-16T10:43:01;99677.03;;;1.12;100.00
13705;BME280;6924;52.122;9.952;2024-01-16T10:45:28;99684.03;;;1.20;100.00
13705;BME280;6924;52.122;9.952;2024-01-16T10:48:01;99682.66;;;1.33;100.00
13705;BME280;6924;52.122;9.952;2024-01-16T10:50:27;99687.97;;;1.39;100.00
13705;BME280;6924;52.122;9.952;2024-01-16T10:52:54;99684.59;;;1.22;100.00
13705;BME280;6924;52.122;9.952;2024-01-16T10:55:22;99686.81;;;1.20;100.00
13705;BME280;6924;52.122;9.952;2024-01-16T10:57:51;99691.56;;;1.24;100.00
13705;BME280;6924;52.122;9.952;2024-01-16T11:00:19;99683.75;;;1.32;100.00
13705;BME280;6924;52.122;9.952;2024-01-16T11:02:50;99681.81;;;1.27;100.00
13705;BME280;6924;52.122;9.952;2024-01-16T11:05:17;99694.03;;;1.21;100.00
13705;BME280;6924;52.122;9.952;2024-01-16T11:07:44;99684.31;;;1.23;100.00
13705;BME280;6924;52.122;9.952;2024-01-16T11:10:11;99682.38;;;1.24;100.00
13705;BME280;6924;52.122;9.952;2024-01-16T11:12:38;99683.50;;;1.28;100.00
13705;BME280;6924;52.122;9.952;2024-01-16T11:15:08;99689.28;;;1.11;100.00
13705;BME280;6924;52.122;9.952;2024-01-16T11:17:38;99694.56;;;1.08;100.00
13705;BME280;6924;52.122;9.952;2024-01-16T11:20:08;99681.97;;;0.95;100.00
13705;BME280;6924;52.122;9.952;2024-01-16T11:22:37;99680.81;;;0.80;100.00
13705;BME280;6924;52.122;9.952;2024-01-16T11:25:10;99685.81;;;0.78;100.00
13705;BME280;6924;52.122;9.952;2024-01-16T11:27:37;99679.16;;;0.79;100.00
13705;BME280;6924;52.122;9.952;2024-01-16T11:30:04;99680.56;;;0.87;100.00
13705;BME280;6924;52.122;9.952;2024-01-16T11:32:34;99683.59;;;0.75;100.00
13705;BME280;6924;52.122;9.952;2024-01-16T11:35:02;99681.00;;;0.64;100.00
13705;BME280;6924;52.122;9.952;2024-01-16T11:37:29;99674.03;;;0.56;100.00
13705;BME280;6924;52.122;9.952;2024-01-16T11:40:25;99665.13;;;0.59;100.00
13705;BME280;6924;52.122;9.952;2024-01-16T11:42:53;99667.09;;;0.64;100.00
13705;BME280;6924;52.122;9.952;2024-01-16T11:45:48;99667.09;;;0.58;100.00
13705;BME280;6924;52.122;9.952;2024-01-16T11:48:17;99666.84;;;0.65;100.00
13705;BME280;6924;52.122;9.952;2024-01-16T11:50:44;99663.47;;;0.63;100.00
13705;BME280;6924;52.122;9.952;2024-01-16T11:53:10;99669.88;;;0.58;100.00
13705;BME280;6924;52.122;9.952;2024-01-16T11:55:48;99665.69;;;0.61;100.00
13705;BME280;6924;52.122;9.952;2024-01-16T11:58:35;99668.03;;;0.79;100.00
13705;BME280;6924;52.122;9.952;2024-01-16T12:01:08;99677.78;;;0.82;100.00
13705;BME280;6924;52.122;9.952;2024-01-16T12:03:38;99671.91;;;0.83;100.00
13705;BME280;6924;52.122;9.952;2024-01-16T12:06:04;99672.22;;;0.87;100.00
13705;BME280;6924;52.122;9.952;2024-01-16T12:08:33;99669.44;;;0.92;100.00
13705;BME280;6924;52.122;9.952;2024-01-16T12:11:01;99669.22;;;1.04;100.00
13705;BME280;6924;52.122;9.952;2024-01-16T12:13:28;99668.91;;;1.00;100.00
13705;BME280;6924;52.122;9.952;2024-01-16T12:16:02;99666.75;;;1.18;100.00
13705;BME280;6924;52.122;9.952;2024-01-16T12:18:30;99666.78;;;1.28;100.00
13705;BME280;6924;52.122;9.952;2024-01-16T12:21:07;99665.13;;;1.37;100.00
13705;BME280;6924;52.122;9.952;2024-01-16T12:23:34;99660.91;;;1.24;100.00
13705;BME280;6924;52.122;9.952;2024-01-16T12:26:00;99659.25;;;1.34;100.00
13705;BME280;6924;52.122;9.952;2024-01-16T12:28:28;99658.69;;;1.27;100.00
13705;BME280;6924;52.122;9.952;2024-01-16T12:30:55;99665.84;;;0.97;100.00
13705;BME280;6924;52.122;9.952;2024-01-16T12:33:22;99667.22;;;0.94;100.00
13705;BME280;6924;52.122;9.952;2024-01-16T12:35:49;99656.91;;;0.85;100.00
13705;BME280;6924;52.122;9.952;2024-01-16T12:38:17;99667.22;;;0.84;100.00
13705;BME280;6924;52.122;9.952;2024-01-16T12:40:46;99669.63;;;0.65;100.00
13705;BME280;6924;52.122;9.952;2024-01-16T12:43:15;99669.06;;;0.68;100.00
13705;BME280;6924;52.122;9.952;2024-01-16T12:45:42;99662.97;;;0.76;100.00
13705;BME280;6924;52.122;9.952;2024-01-16T12:48:09;99658.84;;;0.84;100.00
13705;BME280;6924;52.122;9.952;2024-01-16T12:50:36;99656.34;;;0.82;100.00
13705;BME280;6924;52.122;9.952;2024-01-16T12:53:04;99661.28;;;0.70;100.00
13705;BME280;6924;52.122;9.952;2024-01-16T12:55:33;99647.38;;;0.70;100.00
13705;BME280;6924;52.122;9.952;2024-01-16T12:58:13;99650.16;;;0.70;100.00
13705;BME280;6924;52.122;9.952;2024-01-16T13:00:39;99641.22;;;0.68;100.00
13705;BME280;6924;52.122;9.952;2024-01-16T13:03:06;99643.50;;;0.76;100.00